NOZ949 EKCH-ENGM
Flight info
| Callsign | NOZ949 |
|---|---|
| Flight time | N/A |
| Altitude | 34000 |
| Route | VEDAR DCT SABAK DCT LUNIP |
| Aircraft | B738/M-SDE2E3FGHIRWXY/LB1 |
Departure
| Time | 2026-05-06 18:34 |
|---|---|
| Airport | Copenhagen Kastrup Airport (EKCH) |
Arrival
| Time | N/A |
|---|---|
| Airport | Oslo-Gardermoen International Airport (ENGM) |
| Time | Latitude | Longitude | Altitude | Speed | Heading |
|---|---|---|---|---|---|
| 2026-05-06 17:56 | 55.62735 | 12.64269 | 23 ft | 0 kts | 303° |
| 2026-05-06 18:22 | 55.62727 | 12.64291 | 24 ft | 4 kts | 303° |
| 2026-05-06 18:22 | 55.62715 | 12.64322 | 25 ft | 4 kts | 324° |
| 2026-05-06 18:22 | 55.62694 | 12.64330 | 26 ft | 4 kts | 18° |
| 2026-05-06 18:22 | 55.62670 | 12.64315 | 26 ft | 4 kts | 21° |
| 2026-05-06 18:23 | 55.62650 | 12.64301 | 23 ft | 3 kts | 21° |
| 2026-05-06 18:23 | 55.62627 | 12.64280 | 26 ft | 4 kts | 33° |
| 2026-05-06 18:23 | 55.62606 | 12.64259 | 23 ft | 4 kts | 12° |
| 2026-05-06 18:23 | 55.62583 | 12.64264 | 23 ft | 4 kts | 322° |
| 2026-05-06 18:24 | 55.62566 | 12.64296 | 27 ft | 4 kts | 303° |
| 2026-05-06 18:24 | 55.62551 | 12.64336 | 23 ft | 4 kts | 303° |
| 2026-05-06 18:24 | 55.62544 | 12.64355 | 23 ft | 1 kts | 303° |
| 2026-05-06 18:26 | 55.62545 | 12.64354 | 23 ft | 2 kts | 303° |
| 2026-05-06 18:26 | 55.62565 | 12.64297 | 23 ft | 8 kts | 301° |
| 2026-05-06 18:27 | 55.62555 | 12.64202 | 24 ft | 9 kts | 215° |
| 2026-05-06 18:27 | 55.62509 | 12.64252 | 24 ft | 9 kts | 122° |
| 2026-05-06 18:27 | 55.62473 | 12.64333 | 24 ft | 8 kts | 128° |
| 2026-05-06 18:27 | 55.62440 | 12.64415 | 23 ft | 8 kts | 126° |
| 2026-05-06 18:28 | 55.62412 | 12.64480 | 25 ft | 6 kts | 128° |
| 2026-05-06 18:28 | 55.62396 | 12.64518 | 23 ft | 3 kts | 125° |
| 2026-05-06 18:28 | 55.62380 | 12.64561 | 23 ft | 5 kts | 123° |
| 2026-05-06 18:28 | 55.62357 | 12.64622 | 23 ft | 9 kts | 123° |
| 2026-05-06 18:29 | 55.62313 | 12.64740 | 23 ft | 12 kts | 124° |
| 2026-05-06 18:29 | 55.62242 | 12.64791 | 27 ft | 12 kts | 188° |
| 2026-05-06 18:29 | 55.62168 | 12.64721 | 26 ft | 13 kts | 214° |
| 2026-05-06 18:29 | 55.62079 | 12.64618 | 22 ft | 18 kts | 212° |
| 2026-05-06 18:30 | 55.61965 | 12.64510 | 23 ft | 19 kts | 194° |
| 2026-05-06 18:30 | 55.61834 | 12.64530 | 23 ft | 18 kts | 169° |
| 2026-05-06 18:30 | 55.61712 | 12.64570 | 23 ft | 18 kts | 176° |
| 2026-05-06 18:30 | 55.61601 | 12.64489 | 25 ft | 17 kts | 210° |
| 2026-05-06 18:31 | 55.61503 | 12.64373 | 25 ft | 17 kts | 211° |
| 2026-05-06 18:31 | 55.61410 | 12.64260 | 23 ft | 16 kts | 213° |
| 2026-05-06 18:31 | 55.61311 | 12.64147 | 23 ft | 20 kts | 211° |
| 2026-05-06 18:31 | 55.61175 | 12.63989 | 25 ft | 25 kts | 211° |
| 2026-05-06 18:32 | 55.61026 | 12.63816 | 24 ft | 26 kts | 214° |
| 2026-05-06 18:32 | 55.60879 | 12.63649 | 23 ft | 23 kts | 213° |
| 2026-05-06 18:32 | 55.60777 | 12.63631 | 23 ft | 16 kts | 145° |
| 2026-05-06 18:32 | 55.60695 | 12.63830 | 24 ft | 22 kts | 94° |
| 2026-05-06 18:33 | 55.60763 | 12.64001 | 27 ft | 31 kts | 41° |
| 2026-05-06 18:33 | 55.60958 | 12.64304 | 25 ft | 79 kts | 41° |
| 2026-05-06 18:33 | 55.61543 | 12.65210 | 22 ft | 142 kts | 41° |
| 2026-05-06 18:33 | 55.62392 | 12.66510 | 162 ft | 178 kts | 45° |
| 2026-05-06 18:34 | 55.63303 | 12.67924 | 1037 ft | 168 kts | 45° |
| 2026-05-06 18:34 | 55.64183 | 12.69273 | 1837 ft | 173 kts | 45° |
| 2026-05-06 18:34 | 55.65199 | 12.70758 | 2127 ft | 204 kts | 42° |
| 2026-05-06 18:34 | 55.66365 | 12.72451 | 2361 ft | 230 kts | 41° |
| 2026-05-06 18:35 | 55.67846 | 12.73861 | 2749 ft | 255 kts | 14° |
| 2026-05-06 18:35 | 55.69637 | 12.73766 | 3533 ft | 264 kts | 345° |